Time;durP1;ratioP1;P1;durP2;ratioP2;P2;SDS_P1;SDS_P2;PMS_P1;PMS_P2;Temp;Humidity;BMP_temperature;BMP_pressure;BME280_temperature;BME280_humidity;BME280_pressure;Samples;Min_cycle;Max_cycle;Signal;HPM_P1;HPM_P2
2022/07/27 00:02:31;;;;;;;3.88;1.40;;;;;;;19.43;47.86;100009.03;10346711;28;20712;-77
2022/07/27 00:07:33;;;;;;;3.63;1.40;;;;;;;19.40;47.92;100018.09;10349218;28;20148;-77
2022/07/27 00:12:37;;;;;;;3.20;1.30;;;;;;;19.25;48.66;100010.78;10329175;28;20931;-79
2022/07/27 00:17:39;;;;;;;3.10;1.27;;;;;;;19.19;48.52;100011.34;10347482;28;20058;-79
2022/07/27 00:22:41;;;;;;;4.95;1.30;;;;;;;18.97;48.91;100012.47;10349048;28;20096;-79
2022/07/27 00:27:43;;;;;;;6.55;1.40;;;;;;;18.80;49.32;100013.22;10333949;28;20642;-84
2022/07/27 00:32:45;;;;;;;2.47;1.20;;;;;;;18.89;49.18;100009.72;10334510;28;20117;-83
2022/07/27 00:37:46;;;;;;;4.30;1.40;;;;;;;18.90;49.24;100011.41;10350000;28;20111;-84
2022/07/27 00:42:48;;;;;;;4.65;1.40;;;;;;;18.78;49.55;100020.47;10331809;28;20522;-84
2022/07/27 00:47:50;;;;;;;2.92;1.60;;;;;;;18.77;49.33;100028.56;10336377;28;20050;-83
2022/07/27 00:52:55;;;;;;;5.00;1.70;;;;;;;18.82;49.40;100027.16;10340587;28;20731;-83
2022/07/27 00:57:58;;;;;;;2.55;1.20;;;;;;;18.61;49.75;100024.69;10341895;28;20066;-83
2022/07/27 01:03:00;;;;;;;3.92;1.55;;;;;;;18.72;49.89;100025.50;10341269;28;20054;-84
2022/07/27 01:08:12;;;;;;;5.28;1.55;;;;;;;18.62;49.80;100025.53;10341875;28;20151;-83
2022/07/27 01:13:15;;;;;;;4.70;1.60;;;;;;;18.58;50.09;100022.28;10338771;28;20080;-83
2022/07/27 01:18:29;;;;;;;7.00;1.55;;;;;;;18.30;51.18;100017.84;10358000;28;20061;-83
2022/07/27 01:23:32;;;;;;;7.30;1.63;;;;;;;18.21;51.00;100015.19;10353900;28;20419;-83
2022/07/27 01:28:34;;;;;;;7.20;1.75;;;;;;;18.23;50.78;100031.78;10338406;28;20050;-83
2022/07/27 01:33:36;;;;;;;8.25;1.95;;;;;;;18.02;51.52;100015.97;10334192;28;20401;-84
2022/07/27 01:38:37;;;;;;;13.70;1.95;;;;;;;17.93;51.77;100013.31;10339493;28;20512;-83
2022/07/27 01:43:39;;;;;;;5.40;1.80;;;;;;;17.85;51.79;100020.09;10338481;28;20100;-83
2022/07/27 01:48:41;;;;;;;7.85;1.80;;;;;;;17.94;51.94;100015.81;10356285;28;20058;-83
2022/07/27 01:53:43;;;;;;;7.68;1.80;;;;;;;18.03;52.00;100017.66;10337833;28;20054;-84
2022/07/27 01:58:45;;;;;;;6.22;1.90;;;;;;;18.11;51.75;100022.25;10336378;28;20463;-83
2022/07/27 02:03:47;;;;;;;3.92;1.42;;;;;;;18.13;51.39;100030.88;10342474;28;20475;-84
2022/07/27 02:08:48;;;;;;;6.00;1.50;;;;;;;18.09;51.83;100032.13;10344075;28;20053;-84
2022/07/27 02:13:51;;;;;;;5.93;1.63;;;;;;;18.05;52.10;100010.41;10344276;28;20141;-83
2022/07/27 02:18:53;;;;;;;6.57;1.70;;;;;;;17.96;52.12;100013.88;10343638;28;20054;-83
2022/07/27 02:23:55;;;;;;;6.93;1.60;;;;;;;17.98;51.81;100005.78;10341995;28;20670;-84
2022/07/27 02:28:56;;;;;;;5.88;1.70;;;;;;;18.03;51.81;100008.88;10342257;28;20064;-84
2022/07/27 02:33:59;;;;;;;5.47;1.63;;;;;;;18.10;51.98;100017.91;10340359;28;20042;-84
2022/07/27 02:39:00;;;;;;;5.43;1.83;;;;;;;18.11;51.99;100017.81;10356084;28;20703;-84
2022/07/27 02:44:02;;;;;;;5.35;1.80;;;;;;;18.19;52.25;100012.69;10341892;28;20108;-83
2022/07/27 02:49:04;;;;;;;6.75;1.67;;;;;;;18.27;51.65;100014.63;10341186;28;20060;-83
2022/07/27 02:54:06;;;;;;;5.03;1.60;;;;;;;18.34;51.71;100015.75;10342299;28;20079;-83
2022/07/27 02:59:08;;;;;;;6.22;1.73;;;;;;;18.36;51.55;100019.13;10340846;28;20054;-83
2022/07/27 03:04:10;;;;;;;4.53;1.70;;;;;;;18.40;51.45;100016.03;10336070;28;20112;-85
2022/07/27 03:09:12;;;;;;;5.03;1.77;;;;;;;18.42;51.14;100005.31;10336275;28;20089;-84
2022/07/27 03:14:15;;;;;;;5.95;1.95;;;;;;;18.36;51.16;100016.47;10333195;28;20141;-84
2022/07/27 03:19:17;;;;;;;8.35;1.80;;;;;;;18.25;51.24;100022.72;10333976;28;20057;-84
2022/07/27 03:24:18;;;;;;;5.30;1.80;;;;;;;18.27;51.20;100014.63;10335768;28;20108;-84
2022/07/27 03:29:20;;;;;;;5.45;1.70;;;;;;;18.29;51.36;100021.47;10332942;28;20049;-84
2022/07/27 03:34:22;;;;;;;7.43;1.77;;;;;;;18.26;50.98;100028.88;10335770;28;20053;-83
2022/07/27 03:39:24;;;;;;;8.13;1.80;;;;;;;18.13;50.87;100023.78;10334081;28;20117;-84
2022/07/27 03:44:25;;;;;;;5.38;1.83;;;;;;;17.96;50.99;100019.16;10335143;28;20050;-84
2022/07/27 03:49:27;;;;;;;8.85;1.85;;;;;;;17.92;51.37;100030.97;10333797;28;20471;-84
2022/07/27 03:54:29;;;;;;;8.85;2.20;;;;;;;17.96;51.29;100027.09;10334272;28;20065;-84
2022/07/27 03:59:31;;;;;;;7.28;1.80;;;;;;;18.07;51.15;100021.69;10333419;28;20116;-84
2022/07/27 04:04:32;;;;;;;5.15;1.63;;;;;;;18.08;50.85;100025.16;10349390;28;20108;-84
2022/07/27 04:09:36;;;;;;;5.05;1.70;;;;;;;18.15;50.49;100028.94;10330966;28;20078;-84
2022/07/27 04:14:39;;;;;;;6.88;1.90;;;;;;;18.26;50.18;100039.44;10333170;28;20050;-84
2022/07/27 04:19:42;;;;;;;10.82;2.13;;;;;;;18.20;50.20;100038.16;10348783;28;20104;-84
2022/07/27 04:24:43;;;;;;;6.93;1.80;;;;;;;18.22;50.30;100044.16;10346912;28;20053;-84
2022/07/27 04:29:45;;;;;;;7.85;1.92;;;;;;;18.30;49.91;100035.56;10334349;28;20049;-84
2022/07/27 04:34:47;;;;;;;7.63;1.80;;;;;;;18.40;49.66;100034.56;10348112;28;20042;-84
2022/07/27 04:39:49;;;;;;;9.02;1.95;;;;;;;18.41;49.54;100035.41;10332103;28;20126;-84
2022/07/27 04:44:51;;;;;;;9.35;1.95;;;;;;;18.51;49.25;100036.25;10334009;28;20508;-84
2022/07/27 04:50:24;;;;;;;9.82;2.38;;;;;;;18.51;48.82;100044.19;10348281;28;20054;-84
2022/07/27 04:55:26;;;;;;;5.53;2.00;;;;;;;18.65;48.88;100047.25;10329806;28;20054;-84
2022/07/27 05:00:28;;;;;;;5.97;2.00;;;;;;;18.88;48.33;100041.66;10333252;28;20401;-84
2022/07/27 05:05:30;;;;;;;9.07;1.92;;;;;;;19.16;47.74;100040.78;10332981;28;20058;-84
2022/07/27 05:10:32;;;;;;;7.95;2.15;;;;;;;19.41;47.37;100056.09;10329386;28;20127;-84
2022/07/27 05:15:34;;;;;;;10.20;2.20;;;;;;;20.19;45.25;100047.63;10335032;28;20113;-84
2022/07/27 05:20:55;;;;;;;5.97;1.70;;;;;;;21.12;43.32;100050.63;10334618;28;20057;-84
2022/07/27 05:25:57;;;;;;;6.05;1.80;;;;;;;20.45;44.09;100061.84;10333228;28;20786;-85
2022/07/27 05:30:59;;;;;;;6.95;1.90;;;;;;;20.07;44.61;100065.56;10333907;28;20050;-84
2022/07/27 05:36:00;;;;;;;10.40;2.13;;;;;;;19.95;45.26;100079.22;10334529;28;20057;-85
2022/07/27 05:41:10;;;;;;;7.03;2.17;;;;;;;19.79;44.97;100076.31;10352696;28;20066;-84
2022/07/27 05:46:12;;;;;;;9.45;2.20;;;;;;;19.86;44.97;100082.75;10355429;28;20393;-85
2022/07/27 05:51:14;;;;;;;8.18;2.20;;;;;;;20.01;44.78;100092.72;10338178;28;20108;-84
2022/07/27 05:56:16;;;;;;;8.00;2.22;;;;;;;20.16;44.43;100090.41;10338602;28;20128;-85
2022/07/27 06:01:18;;;;;;;7.95;1.90;;;;;;;20.39;44.11;100101.44;10339006;28;20066;-84
2022/07/27 06:11:40;;;;;;;8.05;2.10;;;;;;;20.17;43.96;100100.06;10334959;28;20112;-85
2022/07/27 06:16:42;;;;;;;6.43;2.00;;;;;;;20.08;44.27;100114.22;10340035;28;20065;-85
2022/07/27 06:21:44;;;;;;;7.40;2.00;;;;;;;20.01;44.26;100113.16;10337230;28;20053;-85
2022/07/27 06:26:52;;;;;;;8.88;2.15;;;;;;;20.08;44.46;100115.06;10338049;28;20058;-84
2022/07/27 06:31:53;;;;;;;10.77;2.17;;;;;;;20.64;43.38;100112.19;10335277;28;20559;-84
2022/07/27 06:36:58;;;;;;;7.18;2.00;;;;;;;20.76;42.72;100115.50;10339579;28;20074;-84
2022/07/27 06:42:00;;;;;;;6.93;2.17;;;;;;;21.32;41.84;100112.47;10338177;28;20062;-84
2022/07/27 06:47:03;;;;;;;8.15;2.15;;;;;;;21.42;41.79;100113.22;10342934;28;20052;-85
2022/07/27 06:52:06;;;;;;;8.57;2.03;;;;;;;21.49;41.29;100114.25;10337219;28;20046;-84
2022/07/27 06:57:08;;;;;;;9.32;2.00;;;;;;;21.20;41.68;100122.50;10334402;28;20057;-84
2022/07/27 07:08:14;;;;;;;6.53;2.10;;;;;;;20.33;43.06;100123.31;10330354;28;20050;-84
2022/07/27 07:13:16;;;;;;;7.53;1.83;;;;;;;19.95;43.94;100119.84;10336536;28;20618;-84
2022/07/27 07:18:19;;;;;;;8.57;1.88;;;;;;;19.90;44.22;100134.56;10345942;28;20467;-84
2022/07/27 07:23:21;;;;;;;8.20;2.00;;;;;;;20.19;43.49;100122.00;10329543;28;20495;-84
2022/07/27 07:28:22;;;;;;;10.85;1.92;;;;;;;20.14;43.27;100124.25;10332830;28;20540;-84
2022/07/27 07:33:25;;;;;;;9.02;2.08;;;;;;;19.99;43.43;100131.03;10333210;28;21220;-84
2022/07/27 07:38:27;;;;;;;8.10;2.05;;;;;;;20.51;42.72;100132.13;10349735;28;20061;-84
2022/07/27 07:43:29;;;;;;;11.02;2.25;;;;;;;22.30;39.23;100118.16;10334601;28;20526;-84
2022/07/27 07:48:31;;;;;;;8.02;2.20;;;;;;;24.07;36.72;100110.16;10333974;28;20507;-84
2022/07/27 07:53:33;;;;;;;9.43;2.00;;;;;;;24.54;34.38;100105.56;10329288;28;20049;-84
2022/07/27 07:58:41;;;;;;;8.67;2.20;;;;;;;23.47;35.93;100109.81;10346929;28;20099;-84
2022/07/27 08:03:43;;;;;;;7.90;1.98;;;;;;;22.28;37.04;100117.50;10334967;28;20636;-84
2022/07/27 08:08:51;;;;;;;7.78;2.03;;;;;;;22.72;35.41;100112.78;10332967;28;20061;-84
2022/07/27 08:13:53;;;;;;;6.38;2.10;;;;;;;23.45;34.52;100115.31;10333712;28;20050;-84
2022/07/27 08:18:55;;;;;;;5.35;1.90;;;;;;;24.31;32.67;100106.53;10331349;28;20051;-84
2022/07/27 08:23:56;;;;;;;7.93;1.77;;;;;;;25.82;31.00;100103.63;10328277;28;20045;-84
2022/07/27 08:29:01;;;;;;;7.82;1.85;;;;;;;26.32;29.79;100102.03;10332574;28;20054;-84
2022/07/27 08:34:14;;;;;;;9.45;2.00;;;;;;;24.52;31.59;100110.25;10333684;28;20109;-84
2022/07/27 08:39:15;;;;;;;7.88;2.22;;;;;;;22.93;33.64;100118.47;10330752;28;20115;-84
2022/07/27 08:44:41;;;;;;;10.20;1.95;;;;;;;21.86;35.23;100120.13;10330557;28;20470;-84
2022/07/27 08:50:24;;;;;;;8.13;1.90;;;;;;;22.34;34.36;100123.03;10333812;28;20093;-84
2022/07/27 08:55:28;;;;;;;5.82;1.90;;;;;;;22.95;34.19;100111.97;10335087;28;20057;-83
2022/07/27 09:00:32;;;;;;;4.82;1.75;;;;;;;24.02;31.77;100107.97;10349976;28;20132;-84
2022/07/27 09:05:43;;;;;;;9.93;1.85;;;;;;;24.56;29.66;100106.22;10334819;28;20455;-83
2022/07/27 09:10:44;;;;;;;7.47;2.08;;;;;;;24.59;29.64;100094.34;10355606;28;20111;-84
2022/07/27 09:15:55;;;;;;;5.90;1.60;;;;;;;25.61;27.06;100095.47;10336045;28;20046;-80
2022/07/27 09:21:22;;;;;;;6.68;1.75;;;;;;;25.95;27.37;100097.59;10350036;28;20057;-80
2022/07/27 09:26:27;;;;;;;6.38;1.52;;;;;;;24.80;29.17;100095.38;10340481;28;20050;-80
2022/07/27 09:31:44;;;;;;;6.35;1.75;;;;;;;24.46;29.41;100102.09;10335165;28;20400;-80
2022/07/27 09:36:54;;;;;;;4.88;1.67;;;;;;;24.64;29.69;100091.94;10334364;28;20074;-80
2022/07/27 09:42:00;;;;;;;7.28;1.70;;;;;;;25.49;28.46;100088.09;10355032;28;20066;-80
2022/07/27 09:47:19;;;;;;;7.82;1.83;;;;;;;26.05;27.75;100078.59;10347927;28;20057;-81
2022/07/27 09:52:24;;;;;;;8.77;2.00;;;;;;;25.69;27.18;100090.03;10344655;28;20096;-80
2022/07/27 09:57:26;;;;;;;5.55;1.38;;;;;;;24.82;29.14;100085.31;10336818;28;20065;-80
2022/07/27 10:02:28;;;;;;;4.57;1.40;;;;;;;25.03;27.81;100081.97;10335048;28;20058;-80
2022/07/27 10:07:31;;;;;;;4.53;1.50;;;;;;;24.73;29.17;100088.25;10333928;28;21006;-81
2022/07/27 10:12:34;;;;;;;5.80;1.70;;;;;;;24.93;28.24;100089.41;10332674;28;20069;-80
2022/07/27 10:17:37;;;;;;;5.53;1.70;;;;;;;25.27;27.27;100092.47;10333160;28;21094;-80
2022/07/27 10:22:59;;;;;;;4.53;1.50;;;;;;;25.94;25.26;100092.44;10335241;28;20046;-80
2022/07/27 10:28:07;;;;;;;7.10;1.60;;;;;;;25.12;27.25;100090.78;10327560;28;20113;-81
2022/07/27 10:33:52;;;;;;;3.95;1.42;;;;;;;26.61;25.10;100084.00;10335257;28;20050;-80
2022/07/27 10:39:00;;;;;;;4.40;1.40;;;;;;;25.71;26.71;100093.34;10338751;28;20049;-80
2022/07/27 10:44:17;;;;;;;6.73;1.57;;;;;;;25.30;27.15;100097.47;10351743;28;20050;-80
2022/07/27 10:49:24;;;;;;;3.13;1.40;;;;;;;26.11;25.84;100091.22;10352065;28;20057;-80
2022/07/27 10:54:37;;;;;;;5.38;1.50;;;;;;;26.18;26.06;100094.84;10352969;28;20086;-83
2022/07/27 10:59:43;;;;;;;3.40;1.40;;;;;;;26.27;26.50;100083.81;10340213;28;20407;-83
2022/07/27 11:05:05;;;;;;;3.97;1.30;;;;;;;25.18;27.25;100101.59;10346252;28;20136;-81
2022/07/27 11:10:07;;;;;;;7.30;1.60;;;;;;;23.72;28.38;100114.09;10349521;28;20108;-81
2022/07/27 11:15:09;;;;;;;4.88;1.40;;;;;;;23.71;29.11;100109.75;10333582;28;20566;-81
2022/07/27 11:20:11;;;;;;;6.32;1.40;;;;;;;24.27;28.10;100096.19;10335339;28;20119;-81
2022/07/27 11:25:14;;;;;;;5.88;1.40;;;;;;;25.44;26.96;100090.50;10337333;28;20054;-81
2022/07/27 11:30:24;;;;;;;3.88;1.20;;;;;;;25.64;26.11;100087.09;10335497;28;20053;-81
2022/07/27 11:35:26;;;;;;;5.22;1.33;;;;;;;25.15;26.80;100079.69;10334121;28;20042;-81
2022/07/27 11:40:41;;;;;;;2.53;1.10;;;;;;;25.67;25.83;100073.31;10332532;28;20062;-81
2022/07/27 11:46:21;;;;;;;7.03;1.30;;;;;;;25.76;25.31;100064.16;10345770;28;20157;-81
2022/07/27 11:51:23;;;;;;;2.65;1.23;;;;;;;25.42;26.41;100069.25;10326860;28;20468;-81
2022/07/27 11:56:27;;;;;;;2.85;1.38;;;;;;;25.19;26.45;100071.13;10331220;28;20053;-81
2022/07/27 12:01:34;;;;;;;5.03;1.20;;;;;;;25.55;25.71;100066.75;10325555;28;20076;-81
2022/07/27 12:06:37;;;;;;;3.70;1.10;;;;;;;26.33;24.62;100066.13;10328149;28;20043;-81
2022/07/27 12:11:52;;;;;;;3.72;1.27;;;;;;;26.71;24.30;100064.88;10324656;28;20516;-81
2022/07/27 12:17:25;;;;;;;2.70;1.10;;;;;;;26.69;24.43;100058.88;10338449;28;20050;-82
2022/07/27 12:22:35;;;;;;;5.05;1.20;;;;;;;26.90;23.97;100058.88;10324592;28;20054;-81
2022/07/27 12:27:38;;;;;;;4.40;1.30;;;;;;;27.15;24.24;100059.31;10339966;28;20054;-81
2022/07/27 12:32:42;;;;;;;2.20;1.10;;;;;;;27.55;23.59;100057.72;10323691;28;20051;-81
2022/07/27 12:37:44;;;;;;;3.22;1.10;;;;;;;27.72;22.97;100053.69;10330108;28;20050;-81
2022/07/27 12:42:54;;;;;;;5.43;1.20;;;;;;;27.25;22.76;100052.59;10337383;28;20062;-81
2022/07/27 12:48:22;;;;;;;2.72;1.25;;;;;;;26.38;24.69;100053.00;10340921;28;20058;-81
2022/07/27 12:53:23;;;;;;;3.85;1.20;;;;;;;26.33;23.99;100045.50;10340436;28;20054;-82
2022/07/27 12:58:26;;;;;;;5.43;1.13;;;;;;;26.54;24.03;100037.47;10340529;28;20136;-82
2022/07/27 13:03:28;;;;;;;4.25;1.20;;;;;;;26.50;24.08;100038.06;10342247;28;20054;-81
2022/07/27 13:08:29;;;;;;;3.63;1.20;;;;;;;25.35;25.20;100036.19;10356934;28;20054;-81
2022/07/27 13:13:31;;;;;;;3.63;1.17;;;;;;;24.80;26.07;100043.69;10337755;28;20057;-84
2022/07/27 13:18:33;;;;;;;2.95;1.17;;;;;;;25.02;25.13;100038.31;10339391;28;20054;-83
2022/07/27 13:23:35;;;;;;;5.63;1.10;;;;;;;25.18;24.65;100032.00;10336731;28;20451;-84
2022/07/27 13:28:36;;;;;;;2.55;1.00;;;;;;;25.46;25.00;100025.03;10336029;28;20089;-83
2022/07/27 13:33:38;;;;;;;4.68;1.20;;;;;;;25.72;24.52;100029.91;10337486;28;20452;-84
2022/07/27 13:38:40;;;;;;;4.18;1.20;;;;;;;25.42;25.05;100026.41;10337143;28;20050;-85
2022/07/27 13:43:48;;;;;;;2.28;1.02;;;;;;;25.50;25.03;100026.31;10352968;28;20111;-85
2022/07/27 13:48:50;;;;;;;3.15;1.20;;;;;;;25.63;25.13;100025.66;10351095;28;20074;-86
2022/07/27 13:53:53;;;;;;;7.30;1.10;;;;;;;25.90;24.75;100033.84;10337651;28;20053;-85
2022/07/27 13:59:01;;;;;;;2.58;1.00;;;;;;;26.12;23.66;100036.63;10337632;28;20096;-86
2022/07/27 14:04:05;;;;;;;2.60;1.20;;;;;;;26.49;23.24;100029.16;10351041;28;20050;-85
2022/07/27 14:09:08;;;;;;;1.67;1.00;;;;;;;26.67;23.49;100026.88;10349994;28;20050;-86
2022/07/27 14:14:14;;;;;;;2.47;1.10;;;;;;;26.48;22.89;100037.41;10339285;28;20050;-85
2022/07/27 14:19:24;;;;;;;3.35;1.20;;;;;;;26.22;23.94;100037.13;10337107;28;20093;-85
2022/07/27 14:24:26;;;;;;;3.25;1.10;;;;;;;25.92;23.83;100036.31;10337050;28;20054;-78
2022/07/27 14:29:28;;;;;;;4.05;1.10;;;;;;;25.33;24.29;100040.00;10353336;28;20068;-79
2022/07/27 14:34:30;;;;;;;2.10;1.00;;;;;;;25.36;25.10;100035.19;10336457;28;20085;-79
2022/07/27 14:39:31;;;;;;;4.32;1.10;;;;;;;25.47;24.33;100032.03;10336792;28;20054;-79
2022/07/27 14:44:34;;;;;;;1.90;1.10;;;;;;;25.66;25.66;100025.28;10333142;28;20104;-79
2022/07/27 14:49:35;;;;;;;3.67;1.02;;;;;;;25.75;25.38;100032.22;10334758;28;20105;-79
2022/07/27 14:54:41;;;;;;;2.42;1.10;;;;;;;25.73;24.58;100024.34;10334642;28;20062;-79
2022/07/27 14:59:43;;;;;;;3.38;1.08;;;;;;;25.26;24.55;100021.22;10335232;28;20109;-79
2022/07/27 15:04:45;;;;;;;3.45;1.00;;;;;;;25.04;24.46;100017.56;10343207;28;20050;-79
2022/07/27 15:09:46;;;;;;;3.75;1.30;;;;;;;24.85;25.19;100012.75;10336009;28;20114;-78
2022/07/27 15:14:48;;;;;;;3.22;1.00;;;;;;;25.31;24.75;100015.28;10334997;28;20049;-81
2022/07/27 15:19:50;;;;;;;2.42;1.10;;;;;;;25.16;25.50;100009.09;10335556;28;20057;-79
2022/07/27 15:24:52;;;;;;;2.78;1.15;;;;;;;25.39;25.31;100000.00;10351639;28;20151;-79
2022/07/27 15:29:54;;;;;;;2.60;1.10;;;;;;;25.54;24.02;100000.81;10334347;28;20103;-80
2022/07/27 15:34:55;;;;;;;4.43;1.30;;;;;;;25.70;26.41;100000.63;10335877;28;20496;-79
2022/07/27 15:40:35;;;;;;;2.88;1.00;;;;;;;25.83;24.73;99994.59;10333251;28;20053;-80
2022/07/27 15:45:21;;;;;;;3.45;1.30;;;;;;;26.20;24.04;99985.56;10334006;28;20057;-80
2022/07/27 15:50:23;;;;;;;3.88;0.93;;;;;;;26.38;24.41;99984.09;10335198;28;20062;-80
2022/07/27 15:55:25;;;;;;;2.50;0.93;;;;;;;26.11;23.98;99976.81;10350590;28;20042;-79
2022/07/27 16:00:27;;;;;;;4.85;1.05;;;;;;;25.83;23.72;99973.97;10330937;28;20058;-79
2022/07/27 16:05:29;;;;;;;2.55;1.13;;;;;;;25.31;24.44;99973.28;10345741;28;20057;-79
2022/07/27 16:10:31;;;;;;;2.45;1.20;;;;;;;25.33;24.29;99965.06;10328877;28;20378;-80
2022/07/27 16:20:54;;;;;;;7.22;1.17;;;;;;;24.71;24.99;99959.19;10329969;28;20082;-80
2022/07/27 16:25:57;;;;;;;2.28;1.10;;;;;;;24.25;25.15;99958.38;10348278;28;20127;-80
2022/07/27 16:31:10;;;;;;;2.80;1.05;;;;;;;24.08;25.34;99930.94;10329152;28;20486;-80
2022/07/27 16:36:13;;;;;;;2.75;1.00;;;;;;;24.01;25.23;99937.97;10346899;28;20061;-79
2022/07/27 16:41:16;;;;;;;4.57;1.17;;;;;;;23.39;26.14;99945.13;10346506;28;20160;-80
2022/07/27 16:46:18;;;;;;;6.60;1.20;;;;;;;23.62;25.59;99944.38;10330120;28;20042;-79
2022/07/27 16:51:20;;;;;;;2.05;1.00;;;;;;;23.69;25.44;99935.53;10332659;28;20068;-80
2022/07/27 16:56:22;;;;;;;4.13;1.27;;;;;;;23.68;25.82;99944.53;10329358;28;20085;-79
2022/07/27 17:01:24;;;;;;;1.90;1.10;;;;;;;23.57;25.40;99944.94;10331116;28;20088;-80
2022/07/27 17:06:28;;;;;;;1.88;1.00;;;;;;;23.16;26.39;99946.06;10328952;28;20054;-80
2022/07/27 17:11:30;;;;;;;6.60;1.20;;;;;;;23.24;25.64;99946.88;10327954;28;20054;-80
2022/07/27 17:16:37;;;;;;;2.35;1.00;;;;;;;23.30;25.90;99934.66;10345144;28;20116;-80
2022/07/27 17:21:40;;;;;;;2.95;1.10;;;;;;;23.10;26.01;99942.25;10329587;28;20165;-79
2022/07/27 17:26:42;;;;;;;3.88;1.00;;;;;;;23.17;25.92;99929.88;10347245;28;20107;-79
2022/07/27 17:31:44;;;;;;;2.67;1.15;;;;;;;23.47;25.58;99936.31;10334258;28;20054;-80
2022/07/27 17:36:49;;;;;;;2.15;1.10;;;;;;;23.05;25.97;99933.06;10338568;28;20518;-80
2022/07/27 17:41:51;;;;;;;4.72;1.30;;;;;;;22.89;25.88;99943.78;10352703;28;20125;-80
2022/07/27 17:46:53;;;;;;;4.50;1.50;;;;;;;22.67;26.62;99940.81;10349399;28;20058;-77
2022/07/27 17:51:54;;;;;;;4.22;1.42;;;;;;;22.42;26.81;99946.31;10341155;28;20591;-77
2022/07/27 17:56:58;;;;;;;5.15;1.38;;;;;;;22.31;27.63;99951.97;10336660;28;20069;-77
2022/07/27 18:02:00;;;;;;;5.05;1.23;;;;;;;22.35;27.06;99955.97;10333538;28;20066;-77
2022/07/27 18:07:01;;;;;;;2.22;1.25;;;;;;;22.28;27.37;99966.47;10352065;28;20150;-77
2022/07/27 18:12:04;;;;;;;2.67;1.10;;;;;;;22.37;27.21;99962.78;10337842;28;20081;-77
2022/07/27 18:17:06;;;;;;;4.80;1.10;;;;;;;22.27;27.45;99967.44;10334800;28;20046;-78
2022/07/27 18:22:08;;;;;;;4.57;1.40;;;;;;;22.21;27.66;99977.94;10336018;28;20699;-76
2022/07/27 18:27:10;;;;;;;3.58;1.10;;;;;;;22.09;28.13;99980.06;10332514;28;20054;-76
2022/07/27 18:32:12;;;;;;;3.53;1.30;;;;;;;22.01;28.88;99984.53;10324941;28;20153;-76
2022/07/27 18:37:14;;;;;;;4.05;1.40;;;;;;;21.94;28.71;99987.03;10333013;28;20108;-76
2022/07/27 18:42:15;;;;;;;2.55;1.20;;;;;;;21.79;29.09;99991.28;10332394;28;20081;-76
2022/07/27 18:47:18;;;;;;;3.92;1.10;;;;;;;21.59;29.04;99996.06;10349120;28;20590;-76
2022/07/27 18:52:19;;;;;;;3.40;1.20;;;;;;;21.34;29.74;100001.41;10318085;28;20081;-76
2022/07/27 18:57:21;;;;;;;5.65;1.20;;;;;;;21.16;30.55;100003.28;10326861;28;20134;-76
2022/07/27 19:02:23;;;;;;;5.18;1.38;;;;;;;21.06;30.44;100006.06;10331636;28;20089;-76
2022/07/27 19:07:25;;;;;;;3.45;1.20;;;;;;;20.85;30.42;100014.38;10339549;28;20207;-76
2022/07/27 19:12:28;;;;;;;6.93;1.65;;;;;;;20.61;31.23;100016.84;10332625;28;20054;-76
2022/07/27 19:17:30;;;;;;;3.95;1.10;;;;;;;20.43;31.45;100025.78;10333711;28;20089;-76
2022/07/27 19:22:32;;;;;;;7.15;1.30;;;;;;;20.32;31.85;100028.66;10329941;28;20057;-76
2022/07/27 19:27:34;;;;;;;4.40;1.40;;;;;;;20.17;32.41;100028.38;10342785;28;20500;-76
2022/07/27 19:32:38;;;;;;;4.50;1.40;;;;;;;20.07;32.59;100035.56;10327983;28;20061;-76
2022/07/27 19:37:40;;;;;;;9.25;1.70;;;;;;;19.95;32.41;100039.41;10333684;28;20046;-76
2022/07/27 19:42:42;;;;;;;3.50;1.30;;;;;;;19.77;32.91;100047.28;10330136;28;20163;-76
2022/07/27 19:47:44;;;;;;;2.63;1.15;;;;;;;19.73;33.25;100045.03;10325756;28;21054;-78
2022/07/27 19:52:47;;;;;;;3.63;1.40;;;;;;;19.46;33.59;100054.66;10323769;28;20053;-77
2022/07/27 19:57:49;;;;;;;2.97;1.17;;;;;;;19.27;33.34;100049.44;10329703;28;20050;-77
2022/07/27 20:02:51;;;;;;;7.30;1.50;;;;;;;19.25;34.08;100066.47;10328202;28;20089;-76
2022/07/27 20:07:53;;;;;;;4.65;1.50;;;;;;;19.15;34.37;100069.16;10347344;28;20061;-77
2022/07/27 20:12:55;;;;;;;3.47;1.23;;;;;;;18.99;34.15;100066.19;10330693;28;20057;-76
2022/07/27 20:17:57;;;;;;;8.90;1.50;;;;;;;18.81;34.30;100077.66;10330643;28;20054;-76
2022/07/27 20:22:58;;;;;;;6.43;1.40;;;;;;;18.50;34.89;100079.59;10328640;28;20099;-77
2022/07/27 20:28:01;;;;;;;4.78;1.40;;;;;;;18.56;34.70;100084.34;10324751;28;20073;-77
2022/07/27 20:33:03;;;;;;;5.20;1.35;;;;;;;18.53;34.69;100081.97;10346144;28;20058;-77
2022/07/27 20:38:08;;;;;;;5.65;1.40;;;;;;;18.46;34.81;100070.28;10328660;28;20137;-77
2022/07/27 20:43:10;;;;;;;2.63;1.30;;;;;;;18.54;35.00;100088.94;10323754;28;20866;-77
2022/07/27 20:48:12;;;;;;;3.92;1.30;;;;;;;18.46;35.60;100083.50;10331479;28;20054;-77
2022/07/27 20:53:14;;;;;;;4.97;1.55;;;;;;;18.42;35.87;100084.75;10325612;28;20049;-77
2022/07/27 20:58:16;;;;;;;4.90;1.30;;;;;;;18.21;36.41;100094.59;10328653;28;20054;-76
2022/07/27 21:03:17;;;;;;;5.60;1.73;;;;;;;18.19;36.23;100102.69;10330496;28;20057;-76
2022/07/27 21:08:19;;;;;;;5.10;1.42;;;;;;;18.16;36.69;100091.47;10340125;28;20052;-76
2022/07/27 21:13:21;;;;;;;4.60;1.35;;;;;;;18.22;36.08;100097.09;10338804;28;20920;-76
2022/07/27 21:18:23;;;;;;;3.25;1.23;;;;;;;18.28;36.50;100095.75;10336604;28;20069;-75
2022/07/27 21:28:45;;;;;;;4.97;1.50;;;;;;;18.10;36.54;100107.91;10337527;28;20065;-75
2022/07/27 21:33:48;;;;;;;2.20;1.30;;;;;;;17.94;37.83;100103.13;10333231;28;20105;-76
2022/07/27 21:38:50;;;;;;;6.10;1.40;;;;;;;17.67;38.12;100101.06;10336619;28;20061;-75
2022/07/27 21:43:52;;;;;;;5.43;1.30;;;;;;;17.58;38.25;100111.63;10336019;28;20104;-75
2022/07/27 21:48:54;;;;;;;6.90;1.48;;;;;;;17.53;38.40;100109.34;10335093;28;20105;-75
2022/07/27 21:53:56;;;;;;;4.15;1.30;;;;;;;17.24;39.16;100103.03;10336518;28;20491;-75
2022/07/27 21:58:57;;;;;;;6.30;1.40;;;;;;;17.21;38.71;100105.94;10336193;28;20062;-75
2022/07/27 22:03:59;;;;;;;3.58;1.40;;;;;;;17.27;38.65;100115.16;10351010;28;20511;-75
2022/07/27 22:09:01;;;;;;;4.95;1.40;;;;;;;17.20;39.16;100108.72;10336471;28;20054;-76
2022/07/27 22:14:03;;;;;;;4.97;1.35;;;;;;;17.12;39.38;100113.81;10334902;28;20703;-75
2022/07/27 22:19:05;;;;;;;6.00;1.50;;;;;;;16.70;39.73;100113.75;10338829;28;20057;-76
2022/07/27 22:24:06;;;;;;;5.53;1.40;;;;;;;16.68;40.52;100118.31;10335385;28;20496;-76
2022/07/27 22:29:08;;;;;;;6.95;1.60;;;;;;;16.54;40.71;100112.50;10335716;28;20120;-76
2022/07/27 22:34:10;;;;;;;5.13;1.50;;;;;;;15.68;41.78;100122.88;10332428;28;20050;-76
2022/07/27 22:39:12;;;;;;;3.53;1.38;;;;;;;15.45;42.42;100126.41;10332744;28;20087;-75
2022/07/27 22:44:14;;;;;;;3.35;1.30;;;;;;;15.23;43.02;100121.09;10334018;28;20058;-75
2022/07/27 22:49:21;;;;;;;7.78;1.50;;;;;;;15.23;43.11;100127.22;10333422;28;21007;-76
2022/07/27 22:54:23;;;;;;;5.10;1.40;;;;;;;15.53;42.84;100126.69;10350564;28;20054;-75
2022/07/27 22:59:25;;;;;;;7.38;1.50;;;;;;;15.62;43.55;100127.78;10332255;28;20109;-75
2022/07/27 23:04:27;;;;;;;6.18;1.58;;;;;;;15.57;43.79;100127.31;10334531;28;20112;-76
2022/07/27 23:09:29;;;;;;;7.97;1.60;;;;;;;15.20;44.54;100134.53;10348614;28;20054;-76
2022/07/27 23:14:30;;;;;;;5.00;1.58;;;;;;;15.22;44.52;100137.88;10333015;28;20381;-76
2022/07/27 23:19:44;;;;;;;5.93;1.70;;;;;;;15.22;44.59;100138.75;10332134;28;20943;-75
2022/07/27 23:24:46;;;;;;;4.38;1.38;;;;;;;15.31;44.28;100147.72;10333898;28;20057;-75
2022/07/27 23:29:48;;;;;;;4.18;1.40;;;;;;;15.33;44.36;100138.75;10333356;28;20046;-75
2022/07/27 23:34:50;;;;;;;6.65;1.55;;;;;;;14.79;45.00;100148.16;10328040;28;20112;-75
2022/07/27 23:39:53;;;;;;;5.03;1.70;;;;;;;14.57;45.69;100148.03;10331739;28;20058;-75